sensor_id;sensor_type;location;lat;lon;timestamp;pressure;altitude;pressure_sealevel;temperature;humidity
54666;BME280;40566;50.006;36.180;2023-07-13T00:02:19;99661.03;;;15.38;63.57
54666;BME280;40566;50.006;36.180;2023-07-13T00:07:20;99658.63;;;15.34;63.57
54666;BME280;40566;50.006;36.180;2023-07-13T00:12:27;99641.84;;;15.39;63.18
54666;BME280;40566;50.006;36.180;2023-07-13T00:17:28;99647.06;;;15.39;63.23
54666;BME280;40566;50.006;36.180;2023-07-13T00:22:29;99663.78;;;15.35;63.35
54666;BME280;40566;50.006;36.180;2023-07-13T00:27:29;99661.03;;;15.38;63.43
54666;BME280;40566;50.006;36.180;2023-07-13T00:32:31;99658.56;;;15.35;63.66
54666;BME280;40566;50.006;36.180;2023-07-13T00:37:32;99653.41;;;15.34;63.48
54666;BME280;40566;50.006;36.180;2023-07-13T00:42:33;99653.72;;;15.27;63.66
54666;BME280;40566;50.006;36.180;2023-07-13T00:47:34;99662.47;;;15.26;63.47
54666;BME280;40566;50.006;36.180;2023-07-13T00:52:36;99652.19;;;15.23;63.45
54666;BME280;40566;50.006;36.180;2023-07-13T00:57:38;99656.56;;;15.23;63.46
54666;BME280;40566;50.006;36.180;2023-07-13T01:02:42;99645.06;;;15.27;63.05
54666;BME280;40566;50.006;36.180;2023-07-13T01:07:43;99654.72;;;15.25;63.48
54666;BME280;40566;50.006;36.180;2023-07-13T01:12:45;99658.09;;;15.27;63.30
54666;BME280;40566;50.006;36.180;2023-07-13T01:17:45;99654.72;;;15.25;63.00
54666;BME280;40566;50.006;36.180;2023-07-13T01:22:46;99659.00;;;15.26;63.02
54666;BME280;40566;50.006;36.180;2023-07-13T01:27:46;99658.47;;;15.19;63.37
54666;BME280;40566;50.006;36.180;2023-07-13T01:32:47;99657.25;;;15.26;63.27
54666;BME280;40566;50.006;36.180;2023-07-13T01:37:48;99661.47;;;15.29;62.98
54666;BME280;40566;50.006;36.180;2023-07-13T01:42:48;99664.22;;;15.26;63.24
54666;BME280;40566;50.006;36.180;2023-07-13T01:47:49;99665.75;;;15.13;63.28
54666;BME280;40566;50.006;36.180;2023-07-13T01:52:49;99670.38;;;15.06;63.61
54666;BME280;40566;50.006;36.180;2023-07-13T01:57:50;99670.44;;;15.04;63.64
54666;BME280;40566;50.006;36.180;2023-07-13T02:02:51;99666.88;;;15.07;63.82
54666;BME280;40566;50.006;36.180;2023-07-13T02:07:52;99661.88;;;15.02;63.91
54666;BME280;40566;50.006;36.180;2023-07-13T02:12:53;99668.63;;;15.06;63.55
54666;BME280;40566;50.006;36.180;2023-07-13T02:17:53;99674.00;;;15.03;63.74
54666;BME280;40566;50.006;36.180;2023-07-13T02:22:54;99678.44;;;15.01;63.89
54666;BME280;40566;50.006;36.180;2023-07-13T02:27:54;99671.81;;;14.94;64.32
54666;BME280;40566;50.006;36.180;2023-07-13T02:32:56;99667.44;;;14.95;64.70
54666;BME280;40566;50.006;36.180;2023-07-13T02:37:57;99675.63;;;14.87;65.00
54666;BME280;40566;50.006;36.180;2023-07-13T02:42:57;99679.78;;;14.91;64.70
54666;BME280;40566;50.006;36.180;2023-07-13T02:47:58;99675.25;;;14.95;64.69
54666;BME280;40566;50.006;36.180;2023-07-13T02:52:59;99680.56;;;14.93;64.81
54666;BME280;40566;50.006;36.180;2023-07-13T02:57:59;99676.81;;;14.99;64.49
54666;BME280;40566;50.006;36.180;2023-07-13T03:03:00;99690.09;;;15.12;64.64
54666;BME280;40566;50.006;36.180;2023-07-13T03:08:00;99688.13;;;15.17;64.35
54666;BME280;40566;50.006;36.180;2023-07-13T03:13:01;99694.41;;;15.13;64.68
54666;BME280;40566;50.006;36.180;2023-07-13T03:18:02;99694.88;;;15.21;64.66
54666;BME280;40566;50.006;36.180;2023-07-13T03:23:04;99698.44;;;15.37;64.04
54666;BME280;40566;50.006;36.180;2023-07-13T03:28:04;99700.59;;;15.46;63.95
54666;BME280;40566;50.006;36.180;2023-07-13T03:33:06;99706.34;;;15.53;63.62
54666;BME280;40566;50.006;36.180;2023-07-13T03:38:06;99715.41;;;15.63;63.08
54666;BME280;40566;50.006;36.180;2023-07-13T03:43:07;99724.41;;;15.75;63.15
54666;BME280;40566;50.006;36.180;2023-07-13T03:48:07;99730.72;;;15.89;62.77
54666;BME280;40566;50.006;36.180;2023-07-13T03:53:08;99725.81;;;16.00;62.39
54666;BME280;40566;50.006;36.180;2023-07-13T03:58:32;99718.25;;;16.11;61.89
54666;BME280;40566;50.006;36.180;2023-07-13T04:03:34;99720.47;;;16.19;61.80
54666;BME280;40566;50.006;36.180;2023-07-13T04:08:36;99725.09;;;16.31;61.54
54666;BME280;40566;50.006;36.180;2023-07-13T04:13:36;99735.72;;;16.44;61.58
54666;BME280;40566;50.006;36.180;2023-07-13T04:18:37;99737.94;;;16.52;61.03
54666;BME280;40566;50.006;36.180;2023-07-13T04:23:38;99741.66;;;16.63;61.29
54666;BME280;40566;50.006;36.180;2023-07-13T04:28:39;99741.84;;;16.76;60.98
54666;BME280;40566;50.006;36.180;2023-07-13T04:33:39;99740.38;;;16.88;61.07
54666;BME280;40566;50.006;36.180;2023-07-13T04:38:40;99740.91;;;16.95;60.90
54666;BME280;40566;50.006;36.180;2023-07-13T04:43:41;99742.16;;;17.19;60.61
54666;BME280;40566;50.006;36.180;2023-07-13T04:48:42;99742.16;;;17.35;59.95
54666;BME280;40566;50.006;36.180;2023-07-13T04:53:42;99751.94;;;17.48;60.11
54666;BME280;40566;50.006;36.180;2023-07-13T04:58:43;99748.34;;;17.64;59.84
54666;BME280;40566;50.006;36.180;2023-07-13T05:03:44;99747.47;;;17.80;59.84
54666;BME280;40566;50.006;36.180;2023-07-13T05:08:44;99750.34;;;17.91;59.37
54666;BME280;40566;50.006;36.180;2023-07-13T05:13:45;99753.91;;;18.04;59.70
54666;BME280;40566;50.006;36.180;2023-07-13T05:18:45;99744.50;;;18.16;59.36
54666;BME280;40566;50.006;36.180;2023-07-13T05:23:47;99736.69;;;18.31;59.21
54666;BME280;40566;50.006;36.180;2023-07-13T05:28:47;99753.53;;;18.41;59.22
54666;BME280;40566;50.006;36.180;2023-07-13T05:33:48;99751.34;;;18.62;58.86
54666;BME280;40566;50.006;36.180;2023-07-13T05:38:48;99765.16;;;18.80;58.44
54666;BME280;40566;50.006;36.180;2023-07-13T05:43:49;99752.59;;;18.85;58.08
54666;BME280;40566;50.006;36.180;2023-07-13T05:48:50;99753.53;;;18.98;57.67
54666;BME280;40566;50.006;36.180;2023-07-13T05:53:51;99753.50;;;19.13;57.13
54666;BME280;40566;50.006;36.180;2023-07-13T05:58:52;99755.47;;;19.24;56.87
54666;BME280;40566;50.006;36.180;2023-07-13T06:03:52;99756.47;;;19.35;56.53
54666;BME280;40566;50.006;36.180;2023-07-13T06:08:53;99760.81;;;19.49;56.32
54666;BME280;40566;50.006;36.180;2023-07-13T06:13:53;99761.59;;;19.64;55.50
54666;BME280;40566;50.006;36.180;2023-07-13T06:18:54;99759.13;;;19.75;55.13
54666;BME280;40566;50.006;36.180;2023-07-13T06:23:55;99761.16;;;19.85;54.94
54666;BME280;40566;50.006;36.180;2023-07-13T06:28:55;99770.84;;;19.97;54.92
54666;BME280;40566;50.006;36.180;2023-07-13T06:33:56;99766.47;;;20.10;54.41
54666;BME280;40566;50.006;36.180;2023-07-13T06:38:56;99766.38;;;20.25;54.15
54666;BME280;40566;50.006;36.180;2023-07-13T06:43:57;99778.88;;;20.47;54.09
54666;BME280;40566;50.006;36.180;2023-07-13T06:48:58;99785.44;;;20.67;53.68
54666;BME280;40566;50.006;36.180;2023-07-13T06:53:58;99775.31;;;20.73;53.36
54666;BME280;40566;50.006;36.180;2023-07-13T06:58:59;99783.44;;;20.70;53.05
54666;BME280;40566;50.006;36.180;2023-07-13T07:04:00;99779.00;;;20.71;52.34
54666;BME280;40566;50.006;36.180;2023-07-13T07:09:00;99776.97;;;20.87;51.59
54666;BME280;40566;50.006;36.180;2023-07-13T07:14:01;99781.59;;;21.09;52.10
54666;BME280;40566;50.006;36.180;2023-07-13T07:19:02;99779.91;;;21.32;51.15
54666;BME280;40566;50.006;36.180;2023-07-13T07:24:02;99765.72;;;21.35;49.93
54666;BME280;40566;50.006;36.180;2023-07-13T07:29:04;99762.44;;;21.44;49.10
54666;BME280;40566;50.006;36.180;2023-07-13T07:34:05;99747.78;;;21.53;48.72
54666;BME280;40566;50.006;36.180;2023-07-13T07:39:06;99747.81;;;21.64;48.51
54666;BME280;40566;50.006;36.180;2023-07-13T07:44:06;99748.53;;;21.90;48.22
54666;BME280;40566;50.006;36.180;2023-07-13T07:49:10;99749.34;;;21.91;48.25
54666;BME280;40566;50.006;36.180;2023-07-13T07:54:11;99753.78;;;21.90;48.64
54666;BME280;40566;50.006;36.180;2023-07-13T07:59:11;99760.59;;;21.93;48.00
54666;BME280;40566;50.006;36.180;2023-07-13T08:04:12;99755.13;;;21.96;48.25
54666;BME280;40566;50.006;36.180;2023-07-13T08:09:13;99771.91;;;22.06;48.04
54666;BME280;40566;50.006;36.180;2023-07-13T08:14:14;99756.31;;;22.03;47.81
54666;BME280;40566;50.006;36.180;2023-07-13T08:19:16;99765.03;;;21.92;47.75
54666;BME280;40566;50.006;36.180;2023-07-13T08:24:17;99760.09;;;21.88;47.25
54666;BME280;40566;50.006;36.180;2023-07-13T08:29:18;99758.34;;;21.88;47.55
54666;BME280;40566;50.006;36.180;2023-07-13T08:34:19;99758.44;;;21.87;47.61
54666;BME280;40566;50.006;36.180;2023-07-13T08:39:20;99743.13;;;21.92;47.32
54666;BME280;40566;50.006;36.180;2023-07-13T08:44:47;99725.22;;;22.08;46.83
54666;BME280;40566;50.006;36.180;2023-07-13T08:49:50;99737.13;;;22.36;47.06
54666;BME280;40566;50.006;36.180;2023-07-13T08:54:54;99736.31;;;22.58;46.23
54666;BME280;40566;50.006;36.180;2023-07-13T08:59:56;99745.91;;;22.48;46.40
54666;BME280;40566;50.006;36.180;2023-07-13T09:05:19;99730.31;;;22.79;46.34
54666;BME280;40566;50.006;36.180;2023-07-13T09:10:32;99739.66;;;22.83;46.29
54666;BME280;40566;50.006;36.180;2023-07-13T09:15:38;99737.13;;;22.70;46.56
54666;BME280;40566;50.006;36.180;2023-07-13T09:20:46;99745.06;;;22.59;46.73
54666;BME280;40566;50.006;36.180;2023-07-13T09:25:51;99735.13;;;22.51;46.83
54666;BME280;40566;50.006;36.180;2023-07-13T09:31:09;99728.50;;;22.80;46.11
54666;BME280;40566;50.006;36.180;2023-07-13T09:36:24;99726.72;;;23.03;45.11
54666;BME280;40566;50.006;36.180;2023-07-13T09:41:49;99730.41;;;23.23;44.97
54666;BME280;40566;50.006;36.180;2023-07-13T09:46:53;99737.03;;;23.82;43.43
54666;BME280;40566;50.006;36.180;2023-07-13T09:51:59;99737.66;;;23.95;43.69
54666;BME280;40566;50.006;36.180;2023-07-13T09:57:02;99736.56;;;24.19;42.93
54666;BME280;40566;50.006;36.180;2023-07-13T10:02:31;99731.81;;;23.91;43.44
54666;BME280;40566;50.006;36.180;2023-07-13T10:07:38;99725.63;;;23.49;44.07
54666;BME280;40566;50.006;36.180;2023-07-13T10:12:39;99733.53;;;23.49;44.58
54666;BME280;40566;50.006;36.180;2023-07-13T10:17:40;99722.16;;;23.69;44.35
54666;BME280;40566;50.006;36.180;2023-07-13T10:23:05;99710.88;;;24.51;43.29
54666;BME280;40566;50.006;36.180;2023-07-13T10:28:31;99721.53;;;24.71;43.26
54666;BME280;40566;50.006;36.180;2023-07-13T10:33:35;99714.69;;;24.59;43.96
54666;BME280;40566;50.006;36.180;2023-07-13T10:38:36;99709.28;;;24.39;44.22
54666;BME280;40566;50.006;36.180;2023-07-13T10:43:45;99686.81;;;24.24;44.82
54666;BME280;40566;50.006;36.180;2023-07-13T10:48:50;99694.25;;;24.40;44.44
54666;BME280;40566;50.006;36.180;2023-07-13T10:54:14;99697.00;;;24.38;44.47
54666;BME280;40566;50.006;36.180;2023-07-13T10:59:24;99696.31;;;24.36;44.52
54666;BME280;40566;50.006;36.180;2023-07-13T11:04:27;99698.16;;;24.14;44.93
54666;BME280;40566;50.006;36.180;2023-07-13T11:09:40;99694.50;;;23.85;45.95
54666;BME280;40566;50.006;36.180;2023-07-13T11:35:30;99685.81;;;24.86;44.99
54666;BME280;40566;50.006;36.180;2023-07-13T11:40:33;99686.19;;;24.82;45.32
54666;BME280;40566;50.006;36.180;2023-07-13T11:45:34;99671.81;;;24.65;45.93
54666;BME280;40566;50.006;36.180;2023-07-13T11:50:35;99664.63;;;24.86;45.71
54666;BME280;40566;50.006;36.180;2023-07-13T11:55:37;99645.03;;;25.18;45.37
54666;BME280;40566;50.006;36.180;2023-07-13T12:00:38;99630.44;;;25.24;45.89
54666;BME280;40566;50.006;36.180;2023-07-13T12:06:02;99622.03;;;25.48;45.76
54666;BME280;40566;50.006;36.180;2023-07-13T12:11:05;99615.03;;;25.66;45.93
54666;BME280;40566;50.006;36.180;2023-07-13T12:16:35;99600.66;;;25.59;46.03
54666;BME280;40566;50.006;36.180;2023-07-13T12:21:38;99599.53;;;25.81;46.07
54666;BME280;40566;50.006;36.180;2023-07-13T12:26:40;99609.28;;;26.18;44.98
54666;BME280;40566;50.006;36.180;2023-07-13T12:31:43;99582.63;;;26.47;44.61
54666;BME280;40566;50.006;36.180;2023-07-13T12:36:56;99580.66;;;26.49;44.82
54666;BME280;40566;50.006;36.180;2023-07-13T12:47:20;99566.59;;;26.21;45.17
54666;BME280;40566;50.006;36.180;2023-07-13T12:52:30;99566.53;;;26.03;45.46
54666;BME280;40566;50.006;36.180;2023-07-13T12:57:39;99553.28;;;26.03;45.02
54666;BME280;40566;50.006;36.180;2023-07-13T13:02:40;99558.59;;;26.03;45.11
54666;BME280;40566;50.006;36.180;2023-07-13T13:07:41;99551.41;;;26.14;45.01
54666;BME280;40566;50.006;36.180;2023-07-13T13:12:41;99545.13;;;26.42;44.59
54666;BME280;40566;50.006;36.180;2023-07-13T13:17:44;99542.94;;;26.74;44.82
54666;BME280;40566;50.006;36.180;2023-07-13T13:22:45;99545.31;;;26.31;45.39
54666;BME280;40566;50.006;36.180;2023-07-13T13:27:46;99543.09;;;25.99;46.03
54666;BME280;40566;50.006;36.180;2023-07-13T13:32:47;99543.06;;;25.71;46.58
54666;BME280;40566;50.006;36.180;2023-07-13T13:37:48;99548.84;;;25.47;46.75
54666;BME280;40566;50.006;36.180;2023-07-13T13:42:51;99534.38;;;25.31;47.17
54666;BME280;40566;50.006;36.180;2023-07-13T13:47:54;99522.00;;;25.22;47.53
54666;BME280;40566;50.006;36.180;2023-07-13T13:52:55;99525.59;;;25.41;47.12
54666;BME280;40566;50.006;36.180;2023-07-13T13:57:55;99511.84;;;25.65;46.44
54666;BME280;40566;50.006;36.180;2023-07-13T14:02:57;99515.50;;;25.64;45.93
54666;BME280;40566;50.006;36.180;2023-07-13T14:07:57;99508.50;;;25.63;45.92
54666;BME280;40566;50.006;36.180;2023-07-13T14:12:59;99506.84;;;25.62;46.58
54666;BME280;40566;50.006;36.180;2023-07-13T14:17:59;99509.50;;;25.62;46.24
54666;BME280;40566;50.006;36.180;2023-07-13T14:23:00;99508.84;;;25.50;46.26
54666;BME280;40566;50.006;36.180;2023-07-13T14:28:15;99481.94;;;25.45;46.21
54666;BME280;40566;50.006;36.180;2023-07-13T14:33:19;99504.28;;;25.32;46.53
54666;BME280;40566;50.006;36.180;2023-07-13T14:38:20;99486.34;;;25.26;46.96
54666;BME280;40566;50.006;36.180;2023-07-13T14:43:21;99481.03;;;25.26;46.84
54666;BME280;40566;50.006;36.180;2023-07-13T14:48:23;99461.00;;;25.24;46.98
54666;BME280;40566;50.006;36.180;2023-07-13T14:53:26;99455.53;;;25.25;46.50
54666;BME280;40566;50.006;36.180;2023-07-13T14:58:28;99456.78;;;25.11;46.67
54666;BME280;40566;50.006;36.180;2023-07-13T15:03:28;99463.06;;;25.20;46.14
54666;BME280;40566;50.006;36.180;2023-07-13T15:08:29;99466.53;;;25.21;45.62
54666;BME280;40566;50.006;36.180;2023-07-13T15:13:30;99457.66;;;25.22;45.61
54666;BME280;40566;50.006;36.180;2023-07-13T15:18:31;99454.25;;;25.20;46.02
54666;BME280;40566;50.006;36.180;2023-07-13T15:23:33;99451.09;;;25.16;46.11
54666;BME280;40566;50.006;36.180;2023-07-13T15:28:33;99451.34;;;25.13;46.95
54666;BME280;40566;50.006;36.180;2023-07-13T15:33:36;99438.44;;;25.10;46.40
54666;BME280;40566;50.006;36.180;2023-07-13T15:38:37;99450.25;;;25.06;46.62
54666;BME280;40566;50.006;36.180;2023-07-13T15:43:40;99450.13;;;24.98;46.36
54666;BME280;40566;50.006;36.180;2023-07-13T15:48:40;99442.06;;;24.89;46.76
54666;BME280;40566;50.006;36.180;2023-07-13T15:53:42;99441.69;;;24.84;46.39
54666;BME280;40566;50.006;36.180;2023-07-13T15:58:44;99444.03;;;24.78;46.84
54666;BME280;40566;50.006;36.180;2023-07-13T16:03:46;99443.78;;;24.71;47.22
54666;BME280;40566;50.006;36.180;2023-07-13T16:08:49;99435.41;;;24.66;47.47
54666;BME280;40566;50.006;36.180;2023-07-13T16:13:53;99433.34;;;24.60;47.74
54666;BME280;40566;50.006;36.180;2023-07-13T16:18:56;99434.88;;;24.52;48.21
54666;BME280;40566;50.006;36.180;2023-07-13T16:23:58;99441.81;;;24.44;48.45
54666;BME280;40566;50.006;36.180;2023-07-13T16:28:59;99453.75;;;24.38;48.76
54666;BME280;40566;50.006;36.180;2023-07-13T16:34:02;99450.16;;;24.29;48.97
54666;BME280;40566;50.006;36.180;2023-07-13T16:39:13;99429.69;;;24.22;49.11
54666;BME280;40566;50.006;36.180;2023-07-13T16:44:19;99436.63;;;24.13;49.67
54666;BME280;40566;50.006;36.180;2023-07-13T16:49:25;99437.34;;;24.05;49.83
54666;BME280;40566;50.006;36.180;2023-07-13T16:54:26;99445.38;;;23.94;50.04
54666;BME280;40566;50.006;36.180;2023-07-13T16:59:32;99430.06;;;23.88;50.02
54666;BME280;40566;50.006;36.180;2023-07-13T17:04:33;99438.78;;;23.79;50.39
54666;BME280;40566;50.006;36.180;2023-07-13T17:14:45;99426.31;;;23.60;50.82
54666;BME280;40566;50.006;36.180;2023-07-13T17:19:50;99420.31;;;23.48;50.99
54666;BME280;40566;50.006;36.180;2023-07-13T17:24:52;99439.59;;;23.39;51.69
54666;BME280;40566;50.006;36.180;2023-07-13T17:29:53;99423.97;;;23.26;51.78
54666;BME280;40566;50.006;36.180;2023-07-13T17:34:54;99433.25;;;23.20;52.08
54666;BME280;40566;50.006;36.180;2023-07-13T17:39:58;99417.50;;;23.09;52.32
54666;BME280;40566;50.006;36.180;2023-07-13T17:44:58;99432.56;;;22.97;52.50
54666;BME280;40566;50.006;36.180;2023-07-13T17:49:59;99441.22;;;22.88;52.77
54666;BME280;40566;50.006;36.180;2023-07-13T17:54:59;99428.81;;;22.78;53.33
54666;BME280;40566;50.006;36.180;2023-07-13T18:00:03;99433.88;;;22.70;53.73
54666;BME280;40566;50.006;36.180;2023-07-13T18:05:29;99433.09;;;22.58;53.99
54666;BME280;40566;50.006;36.180;2023-07-13T18:10:31;99424.53;;;22.45;54.63
54666;BME280;40566;50.006;36.180;2023-07-13T18:15:32;99431.09;;;22.30;55.78
54666;BME280;40566;50.006;36.180;2023-07-13T18:20:33;99431.91;;;22.19;56.05
54666;BME280;40566;50.006;36.180;2023-07-13T18:25:34;99439.00;;;22.07;56.55
54666;BME280;40566;50.006;36.180;2023-07-13T18:30:35;99429.59;;;21.93;56.60
54666;BME280;40566;50.006;36.180;2023-07-13T18:35:36;99428.53;;;21.85;56.69
54666;BME280;40566;50.006;36.180;2023-07-13T18:40:38;99425.69;;;21.76;56.87
54666;BME280;40566;50.006;36.180;2023-07-13T18:45:39;99428.09;;;21.68;57.04
54666;BME280;40566;50.006;36.180;2023-07-13T18:50:40;99433.38;;;21.68;57.21
54666;BME280;40566;50.006;36.180;2023-07-13T18:55:42;99434.53;;;21.64;57.42
54666;BME280;40566;50.006;36.180;2023-07-13T19:00:51;99430.72;;;21.57;57.38
54666;BME280;40566;50.006;36.180;2023-07-13T19:05:58;99431.06;;;21.52;57.69
54666;BME280;40566;50.006;36.180;2023-07-13T19:10:59;99431.06;;;21.52;57.61
54666;BME280;40566;50.006;36.180;2023-07-13T19:15:59;99423.31;;;21.51;57.66
54666;BME280;40566;50.006;36.180;2023-07-13T19:21:04;99405.84;;;21.50;57.83
54666;BME280;40566;50.006;36.180;2023-07-13T19:26:16;99401.56;;;21.49;57.83
54666;BME280;40566;50.006;36.180;2023-07-13T19:31:22;99400.84;;;21.47;58.08
54666;BME280;40566;50.006;36.180;2023-07-13T19:36:26;99398.31;;;21.45;57.84
54666;BME280;40566;50.006;36.180;2023-07-13T19:41:27;99408.84;;;21.45;58.02
54666;BME280;40566;50.006;36.180;2023-07-13T19:46:31;99392.09;;;21.46;57.86
54666;BME280;40566;50.006;36.180;2023-07-13T19:51:33;99384.91;;;21.48;57.72
54666;BME280;40566;50.006;36.180;2023-07-13T19:56:34;99390.31;;;21.47;57.77
54666;BME280;40566;50.006;36.180;2023-07-13T20:01:34;99380.00;;;21.44;57.82
54666;BME280;40566;50.006;36.180;2023-07-13T20:06:35;99380.25;;;21.41;58.11
54666;BME280;40566;50.006;36.180;2023-07-13T20:11:37;99371.84;;;21.35;58.03
54666;BME280;40566;50.006;36.180;2023-07-13T20:16:38;99379.25;;;21.30;58.24
54666;BME280;40566;50.006;36.180;2023-07-13T20:21:39;99376.03;;;21.27;58.06
54666;BME280;40566;50.006;36.180;2023-07-13T20:26:39;99381.66;;;21.22;58.33
54666;BME280;40566;50.006;36.180;2023-07-13T20:31:41;99370.53;;;21.18;58.44
54666;BME280;40566;50.006;36.180;2023-07-13T20:36:42;99387.41;;;21.16;58.50
54666;BME280;40566;50.006;36.180;2023-07-13T20:41:43;99385.00;;;21.13;58.60
54666;BME280;40566;50.006;36.180;2023-07-13T20:46:43;99383.72;;;21.07;58.78
54666;BME280;40566;50.006;36.180;2023-07-13T20:51:46;99388.09;;;21.07;58.71
54666;BME280;40566;50.006;36.180;2023-07-13T20:56:50;99397.66;;;20.96;58.93
54666;BME280;40566;50.006;36.180;2023-07-13T21:01:51;99397.06;;;20.93;59.08
54666;BME280;40566;50.006;36.180;2023-07-13T21:06:52;99391.44;;;20.86;59.41
54666;BME280;40566;50.006;36.180;2023-07-13T21:11:52;99391.91;;;20.80;59.17
54666;BME280;40566;50.006;36.180;2023-07-13T21:16:53;99384.03;;;20.80;59.62
54666;BME280;40566;50.006;36.180;2023-07-13T21:21:53;99371.97;;;20.77;59.57
54666;BME280;40566;50.006;36.180;2023-07-13T21:26:54;99378.88;;;20.78;59.71
54666;BME280;40566;50.006;36.180;2023-07-13T21:31:56;99373.16;;;20.85;59.56
54666;BME280;40566;50.006;36.180;2023-07-13T21:36:58;99352.84;;;20.87;59.31
54666;BME280;40566;50.006;36.180;2023-07-13T21:42:00;99351.91;;;20.88;59.56
54666;BME280;40566;50.006;36.180;2023-07-13T21:47:01;99338.38;;;20.92;59.24
54666;BME280;40566;50.006;36.180;2023-07-13T21:52:19;99324.03;;;20.96;58.92
54666;BME280;40566;50.006;36.180;2023-07-13T21:57:19;99338.97;;;20.96;58.98
54666;BME280;40566;50.006;36.180;2023-07-13T22:02:20;99340.53;;;20.98;58.84
54666;BME280;40566;50.006;36.180;2023-07-13T22:07:20;99338.72;;;20.99;58.69
54666;BME280;40566;50.006;36.180;2023-07-13T22:12:21;99334.34;;;20.99;58.65
54666;BME280;40566;50.006;36.180;2023-07-13T22:17:22;99329.19;;;20.98;58.66
54666;BME280;40566;50.006;36.180;2023-07-13T22:22:22;99323.81;;;20.99;58.36
54666;BME280;40566;50.006;36.180;2023-07-13T22:27:23;99323.09;;;20.97;58.46
54666;BME280;40566;50.006;36.180;2023-07-13T22:32:28;99319.88;;;20.94;58.46
54666;BME280;40566;50.006;36.180;2023-07-13T22:37:29;99306.94;;;20.91;58.28
54666;BME280;40566;50.006;36.180;2023-07-13T22:42:29;99298.44;;;20.87;58.66
54666;BME280;40566;50.006;36.180;2023-07-13T22:47:31;99299.91;;;20.80;58.63
54666;BME280;40566;50.006;36.180;2023-07-13T22:52:31;99303.72;;;20.76;58.66
54666;BME280;40566;50.006;36.180;2023-07-13T22:57:35;99303.00;;;20.74;58.65
54666;BME280;40566;50.006;36.180;2023-07-13T23:02:36;99313.75;;;20.71;58.51
54666;BME280;40566;50.006;36.180;2023-07-13T23:07:37;99311.38;;;20.68;58.41
54666;BME280;40566;50.006;36.180;2023-07-13T23:12:38;99299.53;;;20.62;58.63
54666;BME280;40566;50.006;36.180;2023-07-13T23:17:42;99298.88;;;20.58;58.84
54666;BME280;40566;50.006;36.180;2023-07-13T23:22:42;99297.47;;;20.54;58.83
54666;BME280;40566;50.006;36.180;2023-07-13T23:27:43;99298.53;;;20.52;59.13
54666;BME280;40566;50.006;36.180;2023-07-13T23:32:45;99288.34;;;20.47;59.38
54666;BME280;40566;50.006;36.180;2023-07-13T23:37:46;99285.13;;;20.44;59.58
54666;BME280;40566;50.006;36.180;2023-07-13T23:42:47;99286.44;;;20.38;59.78
54666;BME280;40566;50.006;36.180;2023-07-13T23:47:49;99262.81;;;20.38;59.77
54666;BME280;40566;50.006;36.180;2023-07-13T23:52:51;99275.22;;;20.36;59.75
54666;BME280;40566;50.006;36.180;2023-07-13T23:57:58;99257.56;;;20.38;59.60
